TimeMDT,TemperatureF,Dew PointF,Humidity,Sea Level PressureIn,VisibilityMPH,Wind Direction,Wind SpeedMPH,Gust SpeedMPH,PrecipitationIn,Events,Conditions,WindDirDegrees,DateUTC
12:10 AM,21.2,17.6,86,29.89,1.0,North,-9999.0,-,0.00,Snow,Light Snow,0,2013-04-17 06:10:00
12:18 AM,21.2,17.6,86,29.89,1.2,North,-9999.0,-,0.01,Snow,Light Snow,0,2013-04-17 06:18:00
12:53 AM,21.0,18.0,88,29.95,1.8,North,-9999.0,-,0.01,Snow,Light Snow,0,2013-04-17 06:53:00
1:29 AM,21.2,17.6,86,29.88,3.0,North,-9999.0,-,0.01,Snow,Light Snow,0,2013-04-17 07:29:00
1:36 AM,21.2,17.6,86,29.87,4.0,North,-9999.0,-,0.01,Snow,Light Snow,0,2013-04-17 07:36:00
1:53 AM,19.9,18.0,92,29.97,4.0,North,-9999.0,-,0.01,Snow,Light Snow,0,2013-04-17 07:53:00
2:53 AM,19.9,18.0,92,29.95,5.0,North,-9999.0,-,0.00,Snow,Light Snow,0,2013-04-17 08:53:00
3:23 AM,19.4,17.6,93,29.85,2.5,North,-9999.0,-,0.00,Snow,Light Snow,0,2013-04-17 09:23:00
3:42 AM,19.4,17.6,93,29.84,4.0,North,-9999.0,-,0.00,Snow,Light Snow,0,2013-04-17 09:42:00
3:53 AM,19.0,16.0,88,29.94,4.0,North,-9999.0,-,0.00,Snow,Light Snow,0,2013-04-17 09:53:00
4:13 AM,19.4,15.8,86,29.84,2.0,North,-9999.0,-,0.00,Snow,Light Snow,0,2013-04-17 10:13:00
4:27 AM,19.4,15.8,86,29.84,3.0,North,-9999.0,-,0.00,Snow,Light Snow,0,2013-04-17 10:27:00
4:53 AM,19.0,16.0,88,29.92,4.0,North,-9999.0,-,0.00,Snow,Light Snow,0,2013-04-17 10:53:00
5:08 AM,19.4,15.8,86,29.83,2.5,North,-9999.0,-,0.00,Snow,Light Snow,0,2013-04-17 11:08:00
5:16 AM,19.4,15.8,86,29.83,2.5,North,-9999.0,-,0.00,Snow,Light Snow,0,2013-04-17 11:16:00
5:41 AM,19.4,15.8,86,29.83,1.0,North,-9999.0,-,0.01,Snow,Light Snow,0,2013-04-17 11:41:00
5:53 AM,19.0,16.0,88,29.93,1.8,North,-9999.0,-,0.01,Snow,Light Snow,0,2013-04-17 11:53:00
6:01 AM,19.4,15.8,86,29.83,2.0,North,-9999.0,-,0.00,Snow,Light Snow,0,2013-04-17 12:01:00
6:07 AM,17.6,15.8,93,29.83,3.0,North,-9999.0,-,0.00,Snow,Light Snow,0,2013-04-17 12:07:00
6:26 AM,17.6,15.8,93,29.82,2.5,North,-9999.0,-,0.00,Snow,Light Snow,0,2013-04-17 12:26:00
6:39 AM,17.6,14.0,86,29.82,1.0,North,-9999.0,-,0.00,Snow,Light Snow,0,2013-04-17 12:39:00
6:48 AM,17.6,14.0,86,29.82,0.8,North,-9999.0,-,0.01,Snow,Light Snow,0,2013-04-17 12:48:00
6:53 AM,18.0,15.1,88,29.93,0.8,North,-9999.0,-,0.01,Snow,Light Snow,0,2013-04-17 12:53:00
7:30 AM,17.6,15.8,93,29.83,1.0,North,-9999.0,-,0.01,Snow,Light Snow,0,2013-04-17 13:30:00
7:42 AM,17.6,14.0,86,29.83,0.8,North,-9999.0,-,0.01,Snow,Light Snow,0,2013-04-17 13:42:00
8:19 AM,17.6,15.8,93,29.84,0.8,North,-9999.0,-,0.01,Snow,Light Snow,0,2013-04-17 14:19:00
8:35 AM,17.6,15.8,93,29.85,0.5,North,-9999.0,-,0.02,Fog-Snow,Snow,0,2013-04-17 14:35:00
8:46 AM,17.6,15.8,93,29.85,0.5,North,-9999.0,-,0.02,Fog-Snow,Snow,0,2013-04-17 14:46:00
9:32 AM,19.4,15.8,86,29.86,0.5,WSW,9.2,-,N/A,Fog-Snow,Light Snow,250,2013-04-17 15:32:00
9:53 AM,19.0,15.1,85,29.99,0.5,SW,8.1,-,N/A,Fog-Snow,Light Snow,230,2013-04-17 15:53:00
10:12 AM,19.4,15.8,86,29.87,1.0,WSW,5.8,-,0.00,Snow,Light Snow,250,2013-04-17 16:12:00
10:40 AM,21.2,15.8,80,29.88,1.5,West,8.1,-,0.01,,Haze,280,2013-04-17 16:40:00
10:53 AM,21.0,16.0,81,29.99,1.2,West,4.6,-,0.01,Snow,Light Snow,280,2013-04-17 16:53:00
11:53 AM,21.9,16.0,78,30.01,2.0,West,6.9,-,0.00,Snow,Light Snow,280,2013-04-17 17:53:00
12:01 PM,23.0,17.6,80,29.91,1.8,West,8.1,-,0.00,Snow,Light Snow,280,2013-04-17 18:01:00
12:11 PM,23.0,15.8,74,29.91,2.5,NW,6.9,-,0.00,Snow,Light Snow,310,2013-04-17 18:11:00
12:18 PM,24.8,17.6,74,29.90,5.0,NW,9.2,-,0.00,Snow,Light Snow,320,2013-04-17 18:18:00
12:25 PM,23.0,15.8,74,29.90,1.8,NW,5.8,-,0.00,Snow,Light Snow,320,2013-04-17 18:25:00
12:41 PM,23.0,15.8,74,29.89,3.0,NNW,9.2,-,0.00,Snow,Light Snow,330,2013-04-17 18:41:00
12:51 PM,24.8,14.0,64,29.90,10.0,NNW,6.9,-,0.00,,Overcast,330,2013-04-17 18:51:00
12:53 PM,25.0,14.0,63,30.00,10.0,NW,9.2,-,0.00,,Overcast,320,2013-04-17 18:53:00
1:53 PM,25.0,14.0,63,30.03,7.0,North,9.2,-,0.00,Snow,Light Snow,360,2013-04-17 19:53:00
2:42 PM,24.8,15.8,69,29.95,2.0,NNW,3.5,-,0.00,Snow,Light Snow,330,2013-04-17 20:42:00
2:51 PM,24.8,15.8,69,29.95,4.0,NW,5.8,-,0.00,Snow,Light Snow,320,2013-04-17 20:51:00
2:53 PM,24.1,16.0,71,30.06,4.0,NNW,9.2,-,0.00,Snow,Light Snow,330,2013-04-17 20:53:00
3:04 PM,24.8,14.0,64,29.95,2.5,NW,8.1,-,0.00,Snow,Light Snow,320,2013-04-17 21:04:00
3:15 PM,24.8,15.8,69,29.95,3.0,North,6.9,-,0.00,Snow,Light Snow,350,2013-04-17 21:15:00
3:22 PM,24.8,15.8,69,29.95,2.0,WNW,8.1,-,0.00,Snow,Light Snow,300,2013-04-17 21:22:00
3:34 PM,24.8,14.0,64,29.95,7.0,WNW,8.1,-,0.00,Snow,Light Snow,300,2013-04-17 21:34:00
3:53 PM,24.1,16.0,71,30.06,8.0,WNW,8.1,-,0.00,Snow,Light Snow,300,2013-04-17 21:53:00
4:35 PM,23.0,15.8,74,29.97,1.8,NW,6.9,-,0.00,Snow,Light Snow,310,2013-04-17 22:35:00
4:42 PM,24.8,15.8,69,29.97,1.8,NW,10.4,-,0.00,Snow,Light Snow,320,2013-04-17 22:42:00
4:50 PM,24.8,15.8,69,29.98,2.0,WNW,11.5,-,0.00,Snow,Light Snow,300,2013-04-17 22:50:00
4:53 PM,23.0,16.0,74,30.10,3.0,NW,9.2,-,0.00,Snow,Light Snow,320,2013-04-17 22:53:00
4:56 PM,23.0,15.8,74,29.98,1.8,NW,8.1,-,0.00,Snow,Light Snow,310,2013-04-17 22:56:00
5:22 PM,23.0,15.8,74,29.99,2.5,NW,12.7,-,0.00,Snow,Light Snow,320,2013-04-17 23:22:00
5:36 PM,23.0,15.8,74,29.99,6.0,NW,11.5,-,0.00,Snow,Light Snow,310,2013-04-17 23:36:00
5:53 PM,23.0,14.0,68,30.12,10.0,NW,10.4,-,0.00,,Overcast,320,2013-04-17 23:53:00
6:53 PM,23.0,14.0,68,30.14,10.0,NW,3.5,-,0.00,,Mostly Cloudy,310,2013-04-18 00:53:00
7:53 PM,19.9,12.0,71,30.17,9.0,NW,5.8,-,0.00,Snow,Light Snow,310,2013-04-18 01:53:00
8:53 PM,19.0,12.9,77,30.19,9.0,NW,3.5,-,0.00,Snow,Light Snow,310,2013-04-18 02:53:00
9:30 PM,17.6,10.4,73,30.06,10.0,NW,4.6,-,0.00,,Overcast,320,2013-04-18 03:30:00
9:53 PM,16.0,9.0,74,30.22,10.0,NW,4.6,-,0.00,,Mostly Cloudy,320,2013-04-18 03:53:00
10:53 PM,14.0,8.1,77,30.23,10.0,Calm,Calm,-,N/A,,Scattered Clouds,0,2013-04-18 04:53:00
11:53 PM,12.0,8.1,84,30.25,10.0,Calm,Calm,-,N/A,,Mostly Cloudy,0,2013-04-18 05:53:00